Time;durP1;ratioP1;P1;durP2;ratioP2;P2;SDS_P1;SDS_P2;PMS_P1;PMS_P2;Temp;Humidity;BMP_temperature;BMP_pressure;BME280_temperature;BME280_humidity;BME280_pressure;Samples;Min_cycle;Max_cycle;Signal;HPM_P1;HPM_P2
2023/08/29 00:02:05;;;;;;;4.83;2.80;;;25.70;57.40;;;26.38;41.53;94234.03;5072890;28;20506;-57
2023/08/29 00:04:32;;;;;;;6.77;3.67;;;25.70;57.40;;;26.38;41.33;94230.53;5071576;28;20475;-57
2023/08/29 00:07:00;;;;;;;3.40;3.10;;;25.70;57.50;;;26.38;41.41;94231.31;5075902;28;20859;-58
2023/08/29 00:09:27;;;;;;;4.00;3.70;;;25.70;57.40;;;26.39;41.46;94226.78;5070800;28;20467;-58
2023/08/29 00:11:55;;;;;;;4.30;3.10;;;25.70;57.60;;;26.40;41.61;94221.13;5074937;28;21259;-59
2023/08/29 00:14:23;;;;;;;3.17;2.53;;;25.70;57.60;;;26.41;41.54;94221.94;5069535;28;21029;-59
2023/08/29 00:16:50;;;;;;;5.03;3.73;;;25.70;57.50;;;26.41;41.08;94221.94;5070193;28;20450;-63
2023/08/29 00:19:21;;;;;;;5.73;3.20;;;25.70;57.40;;;26.38;41.35;94220.53;5073200;28;20470;-59
2023/08/29 00:21:48;;;;;;;5.60;4.10;;;25.70;57.50;;;26.37;41.27;94227.03;5070910;28;20442;-59
2023/08/29 00:24:16;;;;;;;6.00;3.30;;;25.70;57.60;;;26.37;41.40;94220.78;5077507;28;20561;-56
2023/08/29 00:26:43;;;;;;;3.77;3.23;;;25.70;57.70;;;26.37;41.33;94221.63;5067677;28;20447;-61
2023/08/29 00:29:10;;;;;;;9.87;3.87;;;25.60;57.70;;;26.38;41.40;94222.44;5072217;28;20484;-59
2023/08/29 00:31:37;;;;;;;4.70;3.60;;;25.70;57.80;;;26.37;41.30;94218.94;5073336;28;20984;-60
2023/08/29 00:34:04;;;;;;;3.83;3.43;;;25.70;57.80;;;26.36;41.59;94217.28;5071436;28;20523;-57
2023/08/29 00:36:33;;;;;;;7.10;3.70;;;25.70;57.90;;;26.34;41.34;94222.13;5073797;28;20447;-58
2023/08/29 00:39:00;;;;;;;4.33;3.93;;;25.70;57.80;;;26.32;41.75;94221.59;5069216;28;20550;-60
2023/08/29 00:41:28;;;;;;;6.90;3.50;;;25.60;57.90;;;26.27;41.85;94219.66;5069561;28;20480;-58
2023/08/29 00:43:56;;;;;;;5.23;3.43;;;25.60;57.90;;;26.23;42.00;94217.72;5074051;28;20474;-58
2023/08/29 00:46:23;;;;;;;11.30;3.57;;;25.60;58.00;;;26.20;41.83;94220.91;5069789;28;20461;-58
2023/08/29 00:48:50;;;;;;;6.23;3.90;;;25.50;58.10;;;26.17;42.27;94221.44;5076348;28;20476;-58
2023/08/29 00:51:18;;;;;;;8.40;3.87;;;25.50;58.20;;;26.12;41.98;94219.50;5067892;28;20465;-56
2023/08/29 00:53:46;;;;;;;3.87;3.50;;;25.40;58.30;;;26.09;42.29;94218.09;5076417;28;20472;-59
2023/08/29 00:56:17;;;;;;;22.23;3.80;;;25.40;58.40;;;26.07;42.12;94220.25;5073218;28;20466;-60
2023/08/29 00:58:46;;;;;;;7.43;3.83;;;25.40;58.60;;;26.06;42.56;94226.69;5071185;28;20475;-59
2023/08/29 01:01:16;;;;;;;4.63;2.93;;;25.40;58.70;;;26.04;42.31;94230.69;5074470;28;20987;-59
2023/08/29 01:03:44;;;;;;;8.03;3.17;;;25.40;58.80;;;26.03;42.43;94229.91;5070695;28;20628;-56
2023/08/29 01:06:11;;;;;;;5.27;3.20;;;25.40;58.90;;;26.03;42.51;94226.41;5075874;28;20442;-61
2023/08/29 01:08:38;;;;;;;6.70;4.07;;;25.40;58.90;;;26.00;42.47;94214.22;5067328;28;20501;-57
2023/08/29 01:11:12;;;;;;;3.67;3.37;;;25.30;58.80;;;25.96;42.54;94226.53;5072178;28;20449;-58
2023/08/29 01:13:46;;;;;;;5.83;3.37;;;25.30;58.80;;;25.93;42.41;94224.34;5073893;28;20640;-57
2023/08/29 01:16:13;;;;;;;9.17;3.63;;;25.20;58.80;;;25.90;42.60;94214.06;5068542;28;20470;-59
2023/08/29 01:18:40;;;;;;;3.70;3.40;;;25.20;58.80;;;25.86;42.72;94200.31;5070391;28;20466;-60
2023/08/29 01:21:19;;;;;;;15.00;3.93;;;25.20;58.80;;;25.83;43.31;94189.22;5069077;28;20446;-60
2023/08/29 01:23:51;;;;;;;6.10;3.93;;;25.20;58.80;;;25.80;42.89;94187.03;5076863;28;21485;-59
2023/08/29 01:26:20;;;;;;;5.00;3.30;;;25.10;59.10;;;25.76;42.80;94192.09;5069033;28;20504;-60
2023/08/29 01:28:47;;;;;;;3.87;3.53;;;25.10;59.30;;;25.72;43.14;94191.78;5073021;28;20561;-59
2023/08/29 01:31:15;;;;;;;3.80;3.37;;;25.00;59.40;;;25.69;42.80;94181.50;5071710;28;20476;-59
2023/08/29 01:33:42;;;;;;;4.87;3.40;;;25.00;59.50;;;25.66;43.15;94183.91;5071592;28;20520;-59
2023/08/29 01:36:09;;;;;;;5.53;4.30;;;25.00;59.50;;;25.63;43.51;94182.50;5073513;28;20878;-57
2023/08/29 01:38:36;;;;;;;4.97;3.43;;;24.90;59.80;;;25.59;43.01;94179.53;5069621;28;20467;-56
2023/08/29 01:41:04;;;;;;;10.90;3.33;;;24.90;59.70;;;25.56;43.47;94182.72;5073073;28;20449;-56
2023/08/29 01:43:32;;;;;;;5.37;3.30;;;24.90;59.80;;;25.54;43.72;94184.81;5071996;28;20651;-60
2023/08/29 01:46:00;;;;;;;6.50;3.40;;;24.90;59.90;;;25.52;43.46;94184.25;5069364;28;20445;-57
2023/08/29 01:48:27;;;;;;;4.80;3.23;;;24.80;59.90;;;25.49;43.54;94192.03;5074824;28;20463;-56
2023/08/29 01:50:54;;;;;;;10.30;4.03;;;24.80;60.10;;;25.45;43.45;94188.19;5071268;28;21001;-57
2023/08/29 01:53:21;;;;;;;8.53;3.20;;;24.80;60.10;;;25.41;43.89;94188.69;5077653;28;20473;-59
2023/08/29 01:55:49;;;;;;;4.33;3.50;;;24.80;60.40;;;25.42;43.73;94189.50;5073324;28;20486;-59
2023/08/29 01:58:16;;;;;;;3.97;3.27;;;24.70;60.50;;;25.40;43.72;94194.34;5077164;28;20982;-59
2023/08/29 02:00:45;;;;;;;5.37;3.47;;;24.70;60.40;;;25.39;43.71;94188.16;5073249;28;20519;-59
2023/08/29 02:03:12;;;;;;;4.00;3.63;;;24.70;60.30;;;25.37;43.92;94184.06;5077897;28;20465;-60
2023/08/29 02:05:41;;;;;;;3.97;3.50;;;24.70;60.40;;;25.35;43.97;94184.31;5078319;28;20449;-60
2023/08/29 02:08:08;;;;;;;8.30;3.40;;;24.70;60.80;;;25.33;43.92;94191.84;5075050;28;20464;-57
2023/08/29 02:10:35;;;;;;;4.67;4.07;;;24.70;60.80;;;25.31;43.85;94191.25;5075976;28;20956;-59
2023/08/29 02:13:02;;;;;;;9.03;3.60;;;24.60;60.90;;;25.31;44.20;94196.63;5073184;28;20445;-59
2023/08/29 02:15:30;;;;;;;9.27;3.37;;;24.60;60.90;;;25.29;43.91;94193.38;5078267;28;20925;-57
2023/08/29 02:17:58;;;;;;;6.63;3.33;;;24.60;61.10;;;25.29;43.89;94206.03;5078192;28;20473;-60
2023/08/29 02:20:25;;;;;;;9.00;4.00;;;24.60;61.00;;;25.28;44.64;94197.09;5072402;28;20458;-60
2023/08/29 02:22:53;;;;;;;14.30;4.30;;;24.60;62.20;;;25.27;45.25;94205.41;5071484;28;20508;-56
2023/08/29 02:25:20;;;;;;;8.53;3.97;;;24.60;62.50;;;25.15;45.03;94208.22;5074786;28;20458;-59
2023/08/29 02:27:47;;;;;;;8.03;4.07;;;24.50;62.30;;;25.03;44.94;94200.25;5078933;28;21034;-59
2023/08/29 02:30:15;;;;;;;5.30;3.90;;;24.40;62.70;;;24.89;45.19;94189.00;5070259;28;20466;-57
2023/08/29 02:32:42;;;;;;;8.07;4.77;;;24.30;62.40;;;24.79;45.01;94184.28;5077272;28;20445;-57
2023/08/29 02:35:11;;;;;;;7.60;4.00;;;24.20;62.60;;;24.72;45.53;94174.75;5074903;28;20497;-59
2023/08/29 02:37:40;;;;;;;7.20;4.73;;;24.10;62.70;;;24.63;45.50;94172.50;5071927;28;20446;-59
2023/08/29 02:40:09;;;;;;;5.60;3.50;;;24.00;63.00;;;24.57;46.04;94173.47;5068264;28;20478;-60
2023/08/29 02:42:37;;;;;;;7.73;4.67;;;23.90;63.30;;;24.52;46.22;94179.53;5069346;28;20454;-59
2023/08/29 02:45:05;;;;;;;5.67;4.13;;;23.90;63.50;;;24.47;46.21;94173.25;5075967;28;20631;-59
2023/08/29 02:47:32;;;;;;;8.90;4.70;;;23.80;63.90;;;24.41;45.99;94182.31;5074376;28;20455;-59
2023/08/29 02:49:59;;;;;;;5.27;4.23;;;23.80;63.90;;;24.33;46.88;94181.63;5075056;28;20473;-59
2023/08/29 02:52:28;;;;;;;6.27;3.70;;;23.70;64.00;;;24.27;47.09;94182.59;5073390;28;20508;-61
2023/08/29 02:54:55;;;;;;;4.73;4.13;;;23.60;64.50;;;24.18;47.38;94184.03;5074184;28;20503;-58
2023/08/29 02:57:23;;;;;;;5.17;4.00;;;23.50;64.80;;;24.08;47.42;94189.25;5079647;28;20812;-59
2023/08/29 02:59:50;;;;;;;4.50;4.10;;;23.50;64.90;;;24.02;47.13;94190.22;5072948;28;20473;-59
2023/08/29 03:02:17;;;;;;;6.63;4.00;;;23.40;65.20;;;23.97;47.60;94197.13;5075706;28;20507;-59
2023/08/29 03:04:44;;;;;;;4.27;3.87;;;23.30;65.20;;;23.94;47.19;94200.28;5071508;28;20477;-58
2023/08/29 03:07:11;;;;;;;5.23;4.40;;;23.30;65.70;;;23.90;47.78;94199.13;5075224;28;20874;-60
2023/08/29 03:09:42;;;;;;;5.47;4.37;;;23.30;65.70;;;23.86;47.90;94199.84;5076005;28;20475;-56
2023/08/29 03:12:11;;;;;;;6.40;5.03;;;23.20;65.70;;;23.80;48.16;94196.22;5072033;28;20461;-56
2023/08/29 03:14:38;;;;;;;6.17;4.23;;;23.20;66.10;;;23.74;47.98;94195.28;5076806;28;20850;-59
2023/08/29 03:17:05;;;;;;;12.40;4.20;;;23.10;66.00;;;23.74;47.59;94191.81;5073815;28;20466;-61
2023/08/29 03:19:33;;;;;;;5.70;3.80;;;23.10;66.10;;;23.73;48.13;94190.97;5075858;28;20497;-58
2023/08/29 03:22:00;;;;;;;5.00;4.50;;;23.10;66.20;;;23.75;47.53;94185.38;5072392;28;20447;-61
2023/08/29 03:24:27;;;;;;;7.10;4.77;;;23.10;66.50;;;23.77;48.22;94180.59;5077404;28;20877;-61
2023/08/29 03:26:55;;;;;;;7.50;5.33;;;23.10;66.80;;;23.79;47.71;94181.16;5074985;28;20443;-57
2023/08/29 03:29:23;;;;;;;7.13;4.50;;;23.10;66.70;;;23.79;48.40;94171.22;5071527;28;20505;-58
2023/08/29 03:31:50;;;;;;;5.30;4.80;;;23.10;67.10;;;23.79;48.36;94171.22;5073325;28;20454;-60
2023/08/29 03:34:17;;;;;;;9.93;4.20;;;23.10;67.40;;;23.76;47.83;94173.56;5074348;28;20961;-62
2023/08/29 03:36:44;;;;;;;9.10;4.87;;;23.10;66.90;;;23.73;48.56;94164.13;5072120;28;20498;-58
2023/08/29 03:39:12;;;;;;;8.70;5.00;;;23.10;66.90;;;23.72;48.42;94175.94;5074083;28;20516;-62
2023/08/29 03:41:39;;;;;;;9.13;4.83;;;23.00;67.00;;;23.71;47.65;94173.50;5070235;28;21051;-59
2023/08/29 03:44:07;;;;;;;8.10;4.87;;;23.00;66.90;;;23.71;47.91;94179.66;5073143;28;20478;-61
2023/08/29 03:46:35;;;;;;;5.97;4.27;;;23.00;67.80;;;23.72;48.43;94180.47;5070230;28;20898;-60
2023/08/29 03:49:02;;;;;;;6.07;4.17;;;23.10;67.70;;;23.66;47.93;94166.16;5076586;28;20469;-60
2023/08/29 03:51:29;;;;;;;5.77;4.10;;;23.00;67.20;;;23.66;48.49;94168.03;5068652;28;20562;-60
2023/08/29 03:53:56;;;;;;;9.97;4.93;;;23.00;67.40;;;23.65;48.02;94161.81;5072355;28;20466;-59
2023/08/29 03:56:24;;;;;;;11.90;4.20;;;23.00;67.40;;;23.67;48.78;94161.59;5067659;28;20558;-56
2023/08/29 03:58:51;;;;;;;6.10;4.70;;;23.00;67.60;;;23.67;48.65;94169.63;5074812;28;20496;-56
2023/08/29 04:01:20;;;;;;;9.73;4.60;;;23.00;67.60;;;23.66;48.17;94165.34;5074176;28;20958;-57
2023/08/29 04:03:47;;;;;;;17.83;4.63;;;23.00;67.70;;;23.65;48.31;94161.00;5068889;28;20574;-57
2023/08/29 04:06:15;;;;;;;16.63;4.43;;;23.00;67.90;;;23.65;48.32;94150.28;5077394;28;20972;-59
2023/08/29 04:08:42;;;;;;;11.43;4.43;;;23.00;67.60;;;23.63;48.90;94151.31;5071682;28;20649;-58
2023/08/29 04:11:09;;;;;;;9.03;4.17;;;23.00;67.90;;;23.64;48.88;94162.91;5074160;28;20449;-60
2023/08/29 04:13:36;;;;;;;7.13;4.17;;;23.00;67.90;;;23.67;48.93;94162.41;5070403;28;20817;-59
2023/08/29 04:16:04;;;;;;;19.33;5.37;;;23.00;68.20;;;23.69;48.94;94167.56;5070513;28;20539;-56
2023/08/29 04:18:33;;;;;;;26.23;4.47;;;23.00;68.20;;;23.70;49.09;94161.94;5070636;28;20471;-57
2023/08/29 04:21:01;;;;;;;15.43;5.03;;;23.00;68.50;;;23.73;48.39;94160.63;5075084;28;20545;-59
2023/08/29 04:23:28;;;;;;;13.63;4.80;;;23.10;68.50;;;23.73;48.96;94156.06;5076531;28;20466;-56
2023/08/29 04:26:00;;;;;;;5.43;4.53;;;23.10;68.40;;;23.74;48.94;94152.34;5070498;28;20464;-59
2023/08/29 04:28:27;;;;;;;11.73;4.67;;;23.10;68.70;;;23.76;49.31;94152.91;5068456;28;21086;-59
2023/08/29 04:30:55;;;;;;;6.77;4.70;;;23.10;68.80;;;23.79;49.22;94151.63;5076616;28;20474;-57
2023/08/29 04:33:22;;;;;;;5.10;4.53;;;23.10;69.00;;;23.82;48.71;94148.44;5067937;28;20506;-59
2023/08/29 04:35:52;;;;;;;14.57;4.47;;;23.10;68.90;;;23.84;48.89;94162.47;5072381;28;20494;-58
2023/08/29 04:38:20;;;;;;;13.17;5.07;;;23.20;69.30;;;23.86;48.91;94171.13;5072035;28;20509;-57
2023/08/29 04:40:47;;;;;;;7.60;4.30;;;23.20;69.30;;;23.86;48.98;94176.50;5071559;28;20538;-59
2023/08/29 04:43:14;;;;;;;11.03;5.40;;;23.20;69.20;;;23.88;49.54;94174.38;5067145;28;20543;-57
2023/08/29 04:45:44;;;;;;;10.23;4.90;;;23.20;69.30;;;23.94;49.09;94162.69;5068366;28;20955;-57
2023/08/29 04:48:11;;;;;;;7.23;4.40;;;23.30;69.00;;;24.03;49.15;94159.59;5071239;28;20466;-60
2023/08/29 04:50:39;;;;;;;6.50;4.77;;;23.40;68.90;;;24.06;49.04;94161.78;5066764;28;20462;-58
2023/08/29 04:53:08;;;;;;;8.60;4.10;;;23.40;68.90;;;24.08;49.06;94157.00;5070163;28;20942;-57
2023/08/29 04:55:35;;;;;;;14.77;5.57;;;23.40;68.70;;;24.09;48.99;94156.78;5070156;28;20490;-57
2023/08/29 04:58:02;;;;;;;19.63;4.67;;;23.40;68.70;;;24.12;49.21;94158.16;5069310;28;20959;-58
2023/08/29 05:00:29;;;;;;;6.10;4.77;;;23.50;69.20;;;24.12;49.60;94158.16;5073287;28;20463;-60
2023/08/29 05:02:57;;;;;;;5.23;4.70;;;23.50;69.80;;;24.13;48.75;94146.34;5069832;28;20516;-57
2023/08/29 05:05:24;;;;;;;17.73;5.70;;;23.50;69.30;;;24.16;48.79;94137.81;5076652;28;20445;-58
2023/08/29 05:07:51;;;;;;;12.50;4.43;;;23.50;69.70;;;24.20;49.23;94144.34;5068081;28;20473;-58
2023/08/29 05:10:20;;;;;;;16.33;5.13;;;23.50;69.70;;;24.23;48.81;94140.31;5072057;28;20446;-59
2023/08/29 05:12:47;;;;;;;7.87;4.90;;;23.60;69.60;;;24.26;48.63;94143.38;5072577;28;20449;-56
2023/08/29 05:15:16;;;;;;;15.40;5.83;;;23.60;69.70;;;24.31;48.87;94146.13;5066971;28;20870;-60
2023/08/29 05:17:44;;;;;;;11.63;5.70;;;23.60;69.50;;;24.37;48.65;94144.34;5067747;28;20481;-59
2023/08/29 05:20:12;;;;;;;7.13;4.63;;;23.70;69.80;;;24.45;48.55;94145.81;5072707;28;20446;-59
2023/08/29 05:22:39;;;;;;;8.90;5.53;;;23.80;69.70;;;24.55;48.81;94143.28;5070018;28;20984;-59
2023/08/29 05:25:08;;;;;;;11.67;6.00;;;23.80;70.00;;;24.62;49.45;94140.47;5071217;28;20466;-59
2023/08/29 05:27:36;;;;;;;9.57;5.57;;;23.90;70.10;;;24.66;49.14;94139.72;5069097;28;20568;-57
2023/08/29 05:30:05;;;;;;;12.33;5.90;;;24.00;69.60;;;24.70;49.32;94127.41;5071450;28;20481;-58
2023/08/29 05:32:33;;;;;;;15.13;5.63;;;24.00;69.90;;;24.74;48.66;94129.59;5072696;28;20450;-60
2023/08/29 05:35:00;;;;;;;15.50;6.03;;;24.00;69.70;;;24.77;48.37;94132.63;5070376;28;20893;-58
2023/08/29 05:37:27;;;;;;;7.53;6.00;;;24.10;69.40;;;24.89;48.56;94140.59;5071088;28;20551;-57
2023/08/29 05:39:54;;;;;;;18.10;6.37;;;24.20;69.60;;;25.03;48.07;94146.44;5070545;28;21186;-58
2023/08/29 05:42:22;;;;;;;18.17;5.50;;;24.30;69.50;;;25.16;48.45;94146.09;5076860;28;20946;-57
2023/08/29 05:44:50;;;;;;;19.27;6.97;;;24.40;69.30;;;25.26;48.12;94142.72;5070279;28;20478;-60
2023/08/29 05:47:17;;;;;;;19.93;6.20;;;24.50;69.00;;;25.36;48.29;94144.75;5071176;28;20470;-58
2023/08/29 05:49:45;;;;;;;14.20;5.50;;;24.60;69.30;;;25.41;47.71;94140.25;5067084;28;20527;-56
2023/08/29 05:52:12;;;;;;;15.40;5.37;;;24.70;69.00;;;25.45;47.79;94127.09;5069456;28;20862;-56
2023/08/29 05:54:39;;;;;;;21.53;6.40;;;24.70;68.90;;;25.51;48.08;94138.75;5073751;28;20503;-58
2023/08/29 05:57:06;;;;;;;28.43;5.73;;;24.80;68.80;;;25.53;48.09;94136.59;5070003;28;20587;-57
2023/08/29 05:59:34;;;;;;;23.90;5.47;;;24.80;68.80;;;25.56;47.98;94155.78;5073355;28;20488;-59
2023/08/29 06:02:03;;;;;;;8.70;5.20;;;24.80;68.70;;;25.59;48.00;94143.69;5071656;28;20530;-58
2023/08/29 06:04:30;;;;;;;6.60;4.23;;;24.90;69.20;;;25.61;48.21;94148.81;5069163;28;20474;-58
2023/08/29 06:06:58;;;;;;;22.97;5.40;;;24.90;68.90;;;25.64;47.48;94154.53;5070573;28;20453;-60
2023/08/29 06:09:26;;;;;;;14.93;4.90;;;24.90;68.50;;;25.70;47.64;94153.53;5067718;28;21442;-58
2023/08/29 06:11:53;;;;;;;20.70;4.90;;;25.00;68.50;;;25.80;47.82;94160.09;5064988;28;20558;-59
2023/08/29 06:14:20;;;;;;;13.57;5.50;;;25.10;68.50;;;25.95;47.80;94165.66;5068292;28;20974;-59
2023/08/29 06:16:48;;;;;;;11.77;4.90;;;25.20;68.50;;;26.16;47.51;94157.78;5064604;28;21100;-59
2023/08/29 06:19:16;;;;;;;16.73;7.07;;;25.40;68.30;;;26.33;46.65;94155.00;5067020;28;20530;-59
2023/08/29 06:21:43;;;;;;;19.10;7.30;;;25.50;67.50;;;26.40;46.51;94145.63;5065872;28;20443;-57
2023/08/29 06:24:11;;;;;;;22.70;7.93;;;25.60;67.10;;;26.48;46.66;94137.03;5076528;28;20538;-59
2023/08/29 06:26:38;;;;;;;30.13;8.70;;;25.70;67.40;;;26.62;46.57;94140.13;5069449;28;20819;-59
2023/08/29 06:29:05;;;;;;;19.30;6.27;;;25.90;67.30;;;26.81;46.78;94134.34;5071703;28;20498;-58
2023/08/29 06:31:32;;;;;;;21.03;6.63;;;26.00;67.20;;;27.04;45.92;94151.25;5070401;28;20450;-57
2023/08/29 06:34:00;;;;;;;14.17;6.90;;;26.20;66.90;;;27.32;46.18;94152.78;5076697;28;20470;-56
2023/08/29 06:36:29;;;;;;;9.97;5.33;;;26.50;66.40;;;27.64;45.55;94154.53;5072838;28;20521;-60
2023/08/29 06:38:56;;;;;;;24.87;5.70;;;26.70;65.90;;;27.93;44.78;94141.38;5075113;28;20925;-58
2023/08/29 06:41:23;;;;;;;15.27;5.47;;;27.10;65.20;;;28.20;44.53;94146.59;5072246;28;20450;-57
2023/08/29 06:43:50;;;;;;;18.40;4.63;;;27.30;64.60;;;28.50;44.33;94141.50;5071487;28;20996;-59
2023/08/29 06:46:18;;;;;;;12.47;4.70;;;27.60;63.80;;;28.73;43.39;94145.59;5072792;28;20465;-60
2023/08/29 06:48:45;;;;;;;10.53;5.07;;;27.90;62.30;;;28.92;42.96;94141.25;5075339;28;20503;-60
2023/08/29 06:51:13;;;;;;;20.10;4.73;;;28.10;61.40;;;28.98;42.39;94144.75;5072414;28;20511;-60
2023/08/29 06:53:41;;;;;;;9.03;4.77;;;28.20;60.40;;;29.01;41.42;94137.97;5077447;28;20469;-58
2023/08/29 06:56:09;;;;;;;8.10;5.27;;;28.20;59.80;;;29.04;41.34;94142.84;5072228;28;20490;-57
2023/08/29 06:58:36;;;;;;;13.47;5.13;;;28.30;59.70;;;29.15;41.71;94141.72;5075095;28;20496;-58
2023/08/29 07:01:04;;;;;;;10.10;4.50;;;28.30;59.40;;;29.25;41.31;94138.22;5072896;28;20454;-60
2023/08/29 07:03:31;;;;;;;11.00;4.70;;;28.40;59.00;;;29.30;40.46;94133.59;5074071;28;20481;-59
2023/08/29 07:05:59;;;;;;;13.13;4.20;;;28.50;58.60;;;29.40;41.09;94134.66;5072061;28;20958;-57
2023/08/29 07:08:26;;;;;;;9.90;5.10;;;28.60;58.40;;;29.56;39.91;94141.66;5072380;28;20478;-57
2023/08/29 07:10:55;;;;;;;16.80;6.37;;;28.70;58.00;;;29.60;39.78;94153.53;5068742;28;20970;-57
2023/08/29 07:13:22;;;;;;;12.73;5.43;;;28.80;57.60;;;29.64;39.89;94145.69;5076569;28;20253;-60
2023/08/29 07:15:49;;;;;;;8.40;4.50;;;28.90;57.20;;;29.73;39.70;94151.31;5074347;28;20249;-58
2023/08/29 07:18:16;;;;;;;8.63;4.90;;;28.90;57.10;;;29.83;39.13;94143.97;5076400;28;20219;-59
2023/08/29 07:20:44;;;;;;;12.40;5.10;;;29.00;56.60;;;29.98;39.68;94145.81;5069596;28;20303;-59
2023/08/29 07:23:11;;;;;;;27.97;5.83;;;29.20;56.80;;;30.19;38.72;94148.41;5071635;28;20588;-59
2023/08/29 07:25:39;;;;;;;7.87;4.70;;;29.40;56.60;;;30.33;39.01;94145.88;5069139;28;20211;-59
2023/08/29 07:28:09;;;;;;;8.03;5.40;;;29.50;56.10;;;30.45;38.14;94150.97;5071768;28;20752;-57
2023/08/29 07:30:41;;;;;;;14.23;5.80;;;29.60;56.10;;;30.54;37.87;94143.84;5068781;28;20200;-57
2023/08/29 07:33:10;;;;;;;12.80;5.20;;;29.70;55.60;;;30.68;37.70;94144.81;5072515;28;20224;-59
2023/08/29 07:35:38;;;;;;;10.87;3.63;;;29.90;55.40;;;30.79;37.55;94147.47;5074375;28;20204;-57
2023/08/29 07:38:05;;;;;;;8.00;4.50;;;29.90;54.90;;;30.83;37.74;94159.34;5075615;28;20365;-59
2023/08/29 07:40:33;;;;;;;8.47;4.90;;;30.00;54.70;;;30.83;37.31;94151.22;5075230;28;20199;-60
2023/08/29 07:43:03;;;;;;;6.73;4.57;;;30.00;55.00;;;30.82;37.30;94147.69;5077305;28;20281;-57
2023/08/29 07:45:32;;;;;;;8.77;4.70;;;30.00;54.20;;;30.84;37.60;94144.69;5072319;28;20660;-58
2023/08/29 07:47:59;;;;;;;9.73;4.40;;;30.10;54.20;;;30.89;37.39;94156.34;5074363;28;20205;-59
2023/08/29 07:50:26;;;;;;;12.70;5.40;;;30.10;54.20;;;31.00;37.27;94138.06;5069569;28;20669;-58
2023/08/29 07:52:54;;;;;;;4.67;4.30;;;30.20;53.90;;;31.22;36.69;94134.06;5070118;28;20699;-60
2023/08/29 07:55:23;;;;;;;7.20;5.07;;;30.40;53.80;;;31.50;36.81;94137.00;5073957;28;20270;-60
2023/08/29 07:57:50;;;;;;;6.85;3.92;;;30.60;53.40;;;31.84;36.34;94139.59;5075671;28;20235;-58
2023/08/29 08:00:18;;;;;;;7.25;4.45;;;31.00;53.30;;;32.20;35.74;94130.19;5072023;28;20196;-57
2023/08/29 08:02:47;;;;;;;10.27;5.05;;;31.40;52.80;;;32.58;35.27;94132.84;5066562;28;20287;-60
2023/08/29 08:05:16;;;;;;;16.08;4.43;;;31.80;51.90;;;32.95;34.37;94142.06;5075014;28;20199;-60
2023/08/29 08:07:44;;;;;;;14.25;5.45;;;32.20;51.40;;;33.30;34.19;94137.13;5067474;28;20239;-60
2023/08/29 08:10:12;;;;;;;9.00;5.60;;;32.60;50.70;;;33.54;33.76;94124.13;5071147;28;20204;-60
2023/08/29 08:12:39;;;;;;;10.82;5.22;;;32.90;50.10;;;33.81;33.61;94124.44;5069956;28;20200;-60
2023/08/29 08:15:08;;;;;;;5.43;3.58;;;33.20;49.80;;;34.17;33.43;94121.72;5073017;28;20207;-58
2023/08/29 08:17:35;;;;;;;9.25;4.78;;;33.50;49.50;;;34.61;32.55;94117.47;5070300;28;20224;-59
2023/08/29 08:20:07;;;;;;;7.38;4.38;;;33.90;49.20;;;34.95;32.28;94113.38;5069294;28;20224;-59
2023/08/29 08:22:34;;;;;;;7.35;4.50;;;34.30;47.80;;;35.13;32.39;94119.72;5069609;28;20196;-57
2023/08/29 08:25:01;;;;;;;10.75;4.60;;;34.50;48.00;;;35.27;31.53;94116.13;5069449;28;20212;-58
2023/08/29 08:27:29;;;;;;;8.43;4.82;;;34.70;47.60;;;35.47;31.88;94114.78;5068720;28;20784;-58
2023/08/29 08:29:57;;;;;;;14.15;5.15;;;34.90;47.30;;;35.73;31.13;94112.13;5065225;28;20238;-58
2023/08/29 08:32:24;;;;;;;10.02;5.18;;;35.20;46.80;;;35.98;31.07;94107.84;5068987;28;20197;-58
2023/08/29 08:34:51;;;;;;;14.38;6.25;;;35.50;46.60;;;36.19;30.36;94101.75;5069942;28;20212;-59
2023/08/29 08:37:20;;;;;;;7.30;4.82;;;35.80;44.90;;;36.21;29.08;94107.72;5070886;28;20230;-59
2023/08/29 08:39:47;;;;;;;7.28;4.63;;;35.70;43.10;;;35.95;29.77;94097.53;5068571;28;20224;-59
2023/08/29 08:42:15;;;;;;;13.60;5.07;;;35.50;43.90;;;35.79;29.34;94088.16;5071884;28;20197;-57
2023/08/29 08:44:42;;;;;;;8.40;4.13;;;35.30;44.50;;;35.81;29.23;94085.94;5072283;28;20223;-58
2023/08/29 08:47:10;;;;;;;10.68;5.15;;;35.20;44.70;;;35.83;29.04;94084.47;5073300;28;20213;-58
2023/08/29 08:49:38;;;;;;;15.38;5.00;;;35.10;44.60;;;35.49;28.68;94079.69;5068844;28;20593;-60
2023/08/29 08:52:06;;;;;;;12.40;4.57;;;34.80;43.90;;;35.11;29.68;94080.97;5073209;28;20215;-58
2023/08/29 08:54:35;;;;;;;5.05;4.60;;;34.40;44.80;;;34.82;29.86;94089.66;5072596;28;20716;-60
2023/08/29 08:57:02;;;;;;;8.05;5.00;;;34.10;45.40;;;34.50;31.78;94083.31;5070426;28;20859;-59
2023/08/29 08:59:30;;;;;;;4.72;4.32;;;33.80;46.10;;;34.52;31.91;94078.34;5070694;28;20642;-59
2023/08/29 09:01:58;;;;;;;8.52;5.03;;;33.70;46.70;;;34.70;30.27;94083.94;5070724;28;20549;-56
2023/08/29 09:04:26;;;;;;;6.93;4.05;;;33.80;45.90;;;34.89;30.96;94072.81;5072883;28;20731;-59
2023/08/29 09:06:54;;;;;;;8.13;5.68;;;34.00;46.10;;;34.93;30.46;94076.53;5080945;28;20704;-60
2023/08/29 09:09:23;;;;;;;6.68;4.78;;;34.00;46.10;;;34.79;30.11;94076.63;5073243;28;20220;-59
2023/08/29 09:11:56;;;;;;;7.20;5.25;;;34.00;45.50;;;34.55;30.28;94069.53;5073468;28;20277;-60
2023/08/29 09:14:24;;;;;;;7.18;4.90;;;33.80;45.60;;;34.22;30.66;94075.22;5069964;28;20224;-57
2023/08/29 09:16:54;;;;;;;17.63;5.80;;;33.50;45.90;;;33.84;31.92;94072.00;5070018;28;20332;-58
2023/08/29 09:19:23;;;;;;;19.40;6.97;;;33.10;46.50;;;33.63;32.07;94077.03;5074571;28;20255;-57
2023/08/29 09:21:51;;;;;;;9.85;4.82;;;32.90;47.00;;;33.52;32.58;94071.78;5068199;28;20200;-60
2023/08/29 09:24:24;;;;;;;14.32;6.32;;;32.80;47.40;;;33.44;32.32;94075.25;5074613;28;20228;-59
2023/08/29 09:26:52;;;;;;;8.32;4.97;;;32.60;47.60;;;33.39;32.20;94061.72;5070045;28;20292;-56
2023/08/29 09:29:23;;;;;;;11.38;5.50;;;32.60;48.00;;;33.38;32.51;94054.63;5070334;28;20262;-61
2023/08/29 09:31:51;;;;;;;8.00;4.25;;;32.60;48.10;;;33.34;32.10;94059.06;5072806;28;20369;-58
2023/08/29 09:34:27;;;;;;;11.20;5.57;;;32.50;48.10;;;33.24;32.58;94054.66;5071280;28;20712;-59
2023/08/29 09:36:54;;;;;;;8.32;4.60;;;32.40;48.10;;;33.16;32.77;94058.84;5074022;28;20231;-58
2023/08/29 09:39:22;;;;;;;7.68;4.68;;;32.30;48.10;;;33.05;32.76;94057.44;5075617;28;20223;-57
2023/08/29 09:42:03;;;;;;;34.60;26.48;;;32.30;48.10;;;32.92;32.79;94064.50;5070227;28;20202;-56
2023/08/29 09:44:37;;;;;;;18.23;9.30;;;32.10;48.20;;;32.77;33.24;94068.31;5075389;28;20247;-60
2023/08/29 09:47:04;;;;;;;9.77;5.50;;;32.00;48.40;;;32.62;33.17;94060.38;5070299;28;20250;-60
2023/08/29 09:49:33;;;;;;;8.23;4.20;;;31.90;48.50;;;32.45;33.39;94061.72;5072684;28;20230;-57
2023/08/29 09:52:02;;;;;;;13.15;5.53;;;31.70;48.70;;;32.32;33.55;94062.50;5068009;28;20291;-61
2023/08/29 09:54:30;;;;;;;10.52;5.18;;;31.60;48.90;;;32.22;33.64;94060.72;5071343;28;20231;-58
2023/08/29 09:56:57;;;;;;;6.85;4.40;;;31.50;49.20;;;32.11;33.83;94062.78;5070340;28;20258;-59
2023/08/29 09:59:24;;;;;;;11.32;4.90;;;31.40;49.20;;;31.98;34.16;94074.41;5069412;28;20228;-57
2023/08/29 10:01:53;;;;;;;6.25;5.13;;;31.30;49.40;;;31.83;34.12;94061.81;5071998;28;20363;-60
2023/08/29 10:04:21;;;;;;;11.93;4.95;;;31.20;49.50;;;31.69;34.32;94053.59;5071831;28;20220;-58
2023/08/29 10:06:49;;;;;;;22.42;15.85;;;31.00;49.60;;;31.59;34.14;94056.47;5070082;28;20215;-57
2023/08/29 10:09:18;;;;;;;5.07;4.53;;;30.90;50.00;;;31.53;34.23;94054.88;5068477;28;20327;-60
2023/08/29 10:11:45;;;;;;;9.75;4.82;;;30.80;50.10;;;31.54;34.28;94051.91;5071381;28;20207;-61
2023/08/29 10:14:13;;;;;;;7.32;4.60;;;30.80;50.20;;;31.53;34.65;94046.72;5078064;28;20296;-59
2023/08/29 10:16:40;;;;;;;10.40;4.57;;;30.80;50.40;;;31.56;34.40;94043.44;5080192;28;20715;-60
2023/08/29 10:19:09;;;;;;;8.40;4.75;;;30.80;50.50;;;31.60;35.09;94041.75;5071121;28;20292;-61
2023/08/29 10:21:36;;;;;;;9.50;4.80;;;30.80;50.60;;;31.66;34.80;94034.34;5073008;28;20215;-57